Latest Weather Observations for Coober Pedy Airport

IDS60801

Issued at 6:21 pm CDT Thursday 17 October 2019 (issued every 10 minutes, with the page automatically refreshed every 10 minutes)

About weather observations | Map of weather stations | Latest weather observations for SA | Other Formats
Station Details ID: 016090 Name: COOBER PEDY AIRPORT Lat: -29.03 Lon: 134.72 Height: 225.0 m
Data from the previous 72 hours. | See also: Recent months at Coober Pedy Airport
Date/Time
CDT
Temp
°C
App
Temp
°C
Dew
Point
°C
Rel
Hum
%
Delta-T
°C
Wind Press
QNH
hPa
Press
MSL
hPa
Rain since
9am
mm
Dir  Spd
km/h
Gust
km/h
Spd
kts
Gust
kts
17/06:00pm 23.5 18.8 -5.5 14 12.0 SW 11 20 6 11 1018.7 1017.9 0.0
17/05:30pm 23.1 18.4 -4.9 15 11.7 SSW 11 17 6 9 1018.6 1017.8 0.0
17/05:00pm 23.7 20.3 -5.3 14 12.1 SSE 4 13 2 7 1018.7 1017.9 0.0
17/04:30pm 22.7 18.4 -4.4 16 11.3 S 9 19 5 10 1018.8 1018.0 0.0
17/04:00pm 22.5 18.6 -4.5 16 11.3 E 7 13 4 7 1019.1 1018.3 0.0
17/03:30pm 22.4 18.7 -3.1 18 10.9 SW 7 17 4 9 1019.6 1018.8 0.0
17/03:00pm 22.2 17.9 -1.8 20 10.5 WNW 11 20 6 11 1020.0 1019.2 0.0
17/02:30pm 21.3 17.3 -1.9 21 10.1 NNW 9 17 5 9 1020.4 1019.6 0.0
17/02:00pm 20.8 16.7 -0.5 24 9.5 SW 11 19 6 10 1020.7 1019.9 0.0
17/01:30pm 20.7 17.6 0.0 25 9.3 WSW 6 17 3 9 1021.1 1020.3 0.0
17/01:00pm 20.5 17.6 1.4 28 8.8 NE 6 13 3 7 1021.5 1020.7 0.0
17/12:30pm 19.3 15.5 1.8 31 8.0 SE 11 17 6 9 1021.8 1021.0 0.0
17/12:00pm 17.2 13.4 1.6 35 7.0 S 11 22 6 12 1022.1 1021.2 0.0
17/11:30am 17.0 12.5 2.2 37 6.7 S 15 24 8 13 1022.6 1021.8 0.0
17/11:00am 16.4 11.1 3.1 41 6.1 SSE 20 32 11 17 1022.8 1022.0 0.0
17/10:30am 15.2 10.3 4.0 47 5.2 SSE 19 30 10 16 1023.1 1022.3 0.0
17/10:00am 15.0 8.9 4.7 50 4.9 SSE 26 32 14 17 1022.8 1022.0 0.0
17/09:30am 14.6 7.8 5.1 53 4.5 SSE 30 39 16 21 1022.7 1021.9 0.0
17/09:00am 13.5 6.6 4.6 55 4.1 SSE 30 39 16 21 1022.6 1021.8 0.0
17/08:30am 12.8 6.4 5.2 60 3.6 S 28 32 15 17 1022.5 1021.7 0.0
17/08:00am 12.0 6.4 5.2 63 3.2 S 24 28 13 15 1022.1 1021.2 0.0
17/07:30am 11.0 5.7 5.1 67 2.7 S 22 26 12 14 1021.5 1020.7 0.0
17/07:00am 10.7 5.0 4.8 67 2.7 S 24 32 13 17 1020.9 1020.1 0.0
17/06:30am 11.0 5.4 5.3 68 2.6 S 24 32 13 17 1020.3 1019.5 0.0
17/06:00am 11.4 5.7 4.8 64 3.0 S 24 32 13 17 1019.9 1019.1 0.0
17/05:30am 11.7 5.1 4.4 61 3.3 S 28 33 15 18 1019.7 1018.9 0.0
17/05:00am 12.1 3.4 -4.9 30 6.3 S 32 37 17 20 1019.4 1018.6 0.0
17/04:30am 12.4 5.2 4.9 60 3.5 S 32 39 17 21 1019.2 1018.4 0.0
17/04:00am 12.8 6.0 5.2 60 3.6 S 30 35 16 19 1019.3 1018.5 0.0
17/03:30am 13.1 5.7 4.8 57 3.9 S 33 43 18 23 1019.5 1018.7 0.0
17/03:00am 13.4 6.7 3.8 52 4.4 S 28 33 15 18 1019.8 1019.0 0.0
17/02:30am 14.0 6.4 3.8 50 4.7 S 33 44 18 24 1019.7 1018.9 0.0
17/02:00am 14.5 7.3 3.0 46 5.2 S 30 41 16 22 1020.0 1019.2 0.0
17/01:30am 15.0 7.5 3.5 46 5.3 S 32 37 17 20 1020.2 1019.4 0.0
17/01:00am 15.5 9.1 3.3 44 5.6 S 26 33 14 18 1020.3 1019.5 0.0
17/12:30am 16.1 7.6 3.2 42 5.9 S 37 46 20 25 1020.3 1019.5 0.0
17/12:00am 16.9 8.2 2.1 37 6.7 S 37 44 20 24 1020.0 1019.2 0.0
 
Date/Time
CDT
Temp
°C
App
Temp
°C
Dew
Point
°C
Rel
Hum
%
Delta-T
°C
Wind Press
QNH
hPa
Press
MSL
hPa
Rain since
9am
mm
Dir  Spd
km/h
Gust
km/h
Spd
kts
Gust
kts
16/11:30pm 17.8 9.3 0.9 32 7.5 S 35 41 19 22 1019.8 1019.0 0.0
16/11:00pm 18.5 10.2 1.9 33 7.6 S 35 43 19 23 1019.4 1018.6 0.0
16/10:48pm 19.0 11.5 1.5 31 8.0 S 30 43 16 23 1019.1 1018.3 0.0
16/10:30pm 19.0 13.1 -0.9 26 8.6 S 20 24 11 13 1018.8 1018.0 0.0
16/10:00pm 19.6 12.8 -1.5 24 9.1 S 24 28 13 15 1018.5 1017.7 0.0
16/09:30pm 20.3 13.2 -1.5 23 9.5 S 26 32 14 17 1018.2 1017.3 0.0
16/09:00pm 20.8 13.9 -2.3 21 9.9 SSW 24 30 13 16 1017.9 1017.0 0.0
16/08:30pm 21.6 13.5 -3.0 19 10.5 SSW 30 35 16 19 1017.2 1016.4 0.0
16/08:00pm 22.2 14.4 -4.0 17 11.0 SSW 28 35 15 19 1016.8 1016.0 0.0
16/07:30pm 23.0 14.4 -4.1 16 11.5 SSW 32 39 17 21 1016.4 1015.6 0.0
16/07:00pm 23.8 14.7 -3.5 16 11.8 SSW 35 44 19 24 1015.9 1015.1 0.0
16/06:30pm 24.5 16.0 -2.9 16 12.0 SSW 32 41 17 22 1015.5 1014.7 0.0
16/06:00pm 24.3 15.5 -1.5 18 11.6 SSW 35 46 19 25 1015.4 1014.6 0.0
16/05:47pm 24.8 16.0 -1.1 18 11.8 SSW 35 54 19 29 1015.2 1014.4 0.0
16/05:30pm 24.8 15.7 -0.4 19 11.6 SW 37 48 20 26 1015.0 1014.2 0.0
16/05:00pm 24.8 16.7 1.0 21 11.3 SSW 33 46 18 25 1014.6 1013.8 0.0
16/04:30pm 25.3 17.1 2.7 23 11.1 SW 35 54 19 29 1014.7 1013.9 0.0
16/04:08pm 25.4 18.0 4.0 25 10.7 SSW 32 50 17 27 1014.7 1013.9 0.0
16/04:00pm 24.4 16.4 3.7 26 10.3 SSW 35 50 19 27 1014.7 1013.9 0.0
16/03:41pm 25.5 17.9 4.0 25 10.8 SW 33 52 18 28 1014.8 1014.0 0.0
16/03:30pm 24.2 16.4 5.1 29 9.7 SW 35 50 19 27 1015.1 1014.3 0.0
16/03:00pm 24.1 15.7 5.5 30 9.5 SSW 39 54 21 29 1015.2 1014.4 0.0
16/02:40pm 23.5 15.5 5.9 32 9.0 SW 37 56 20 30 1015.7 1014.9 0.0
16/02:30pm 23.2 14.9 6.1 33 8.8 SSW 39 56 21 30 1015.6 1014.8 0.0
16/02:23pm 23.6 15.7 6.0 32 9.1 SW 37 56 20 30 1015.7 1014.9 0.0
16/02:00pm 23.1 15.0 6.8 35 8.5 SW 39 48 21 26 1015.7 1014.9 0.0
16/01:30pm 22.7 15.1 7.7 38 7.9 SW 37 50 20 27 1016.1 1015.3 0.0
16/01:00pm 22.0 14.7 7.4 39 7.6 SSW 35 46 19 25 1016.3 1015.5 0.0
16/12:30pm 22.0 14.5 7.8 40 7.5 SSW 37 50 20 27 1016.3 1015.5 0.0
16/12:00pm 20.8 14.3 8.8 46 6.4 SSW 33 46 18 25 1016.6 1015.8 0.0
16/11:30am 20.2 12.5 8.8 48 6.0 SSW 39 54 21 29 1016.4 1015.6 0.0
16/11:00am 19.3 10.6 8.6 50 5.6 SSW 44 57 24 31 1015.9 1015.1 0.0
16/10:30am 18.6 10.1 9.1 54 5.0 SSW 44 54 24 29 1016.1 1015.3 0.0
16/10:00am 17.5 9.1 8.9 57 4.5 S 43 52 23 28 1014.6 1013.8 0.0
16/09:30am 17.2 9.5 8.6 57 4.5 SSW 39 48 21 26 1014.3 1013.4 0.0
16/09:00am 16.2 7.9 9.2 63 3.7 SSW 43 54 23 29 1014.8 1014.0 0.0
16/08:30am 16.1 5.9 8.6 61 3.9 SSW 52 63 28 34 1014.4 1013.6 0.0
16/08:00am 16.4 6.2 5.1 47 5.4 SSW 48 63 26 34 1013.5 1012.6 0.0
16/07:30am 16.4 7.6 5.7 49 5.2 SSW 41 54 22 29 1013.7 1012.8 0.0
16/07:24am 16.4 7.7 6.0 50 5.1 SSW 41 54 22 29 1013.2 1012.3 0.0
16/07:00am 16.3 7.1 6.2 51 5.0 S 44 54 24 29 1011.1 1010.3 0.0
16/06:46am 16.4 9.3 6.5 52 4.9 SSW 33 50 18 27 1012.1 1011.3 0.0
16/06:30am 16.4 6.0 7.6 56 4.5 SW 52 63 28 34 1013.2 1012.3 0.0
16/06:20am 16.1 7.5 8.8 62 3.8 SSW 44 65 24 35 1012.2 1011.4 0.0
16/06:12am 16.2 8.4 9.6 65 3.5 SW 41 52 22 28 1012.1 1011.3 0.0
16/06:00am 16.5 8.2 9.2 62 3.8 SW 43 54 23 29 1013.7 1012.8 0.0
16/05:54am 16.5 8.0 9.2 62 3.8 SW 44 59 24 32 1013.6 1012.7 0.0
16/05:30am 16.9 6.8 8.8 59 4.2 SW 52 63 28 34 1011.5 1010.7 0.0
16/05:00am 17.8 8.8 7.2 50 5.4 SW 44 61 24 33 1010.4 1009.5 0.0
16/04:59am 17.9 9.1 7.3 50 5.4 SW 43 61 23 33 1010.3 1009.4 0.0
16/04:42am 18.3 10.7 9.1 55 4.9 SSW 39 48 21 26 1009.3 1008.4 0.0
16/04:30am 18.3 12.5 10.7 61 4.1 S 32 43 17 23 1008.3 1007.4 0.0
16/04:25am 18.5 12.9 10.3 59 4.4 SSW 30 43 16 23 1009.1 1008.2 0.0
16/04:00am 19.6 13.4 8.0 47 6.0 SW 30 44 16 24 1011.1 1010.3 0.0
16/03:30am 20.0 14.3 11.0 56 5.0 SSW 32 44 17 24 1010.4 1009.5 0.0
16/03:29am 20.0 14.6 11.0 56 5.0 SSW 30 44 16 24 1010.2 1009.3 0.0
16/03:16am 20.3 15.7 11.0 55 5.1 SW 26 37 14 20 1010.4 1009.5 0.0
16/03:00am 20.4 15.0 10.8 54 5.3 WSW 30 39 16 21 1012.4 1011.6 0.0
16/02:30am 21.5 14.9 11.5 53 5.6 WSW 37 72 20 39 1012.6 1011.8 0.0
16/02:28am 23.4 17.9 10.5 44 7.2 WSW 30 69 16 37 1012.8 1011.9 0.0
16/02:27am 24.1 19.0 10.7 43 7.5 WSW 28 63 15 34 1012.6 1011.8 0.0
16/02:15am 25.0 18.0 8.5 35 9.0 SSW 35 54 19 29 1010.9 1010.1 0.0
16/02:07am 26.0 17.5 5.0 26 10.8 SSW 39 57 21 31 1010.3 1009.4 0.0
16/02:05am 26.1 18.5 5.7 27 10.6 SSW 35 57 19 31 1009.8 1008.9 0.0
16/02:03am 26.9 19.4 4.6 24 11.4 SSW 33 57 18 31 1009.6 1008.7 0.0
16/02:01am 26.5 19.4 3.7 23 11.5 S 30 57 16 31 1010.5 1009.7 0.0
16/02:00am 26.4 20.2 4.2 24 11.3 S 26 50 14 27 1010.7 1009.9 0.0
16/01:58am 26.9 20.9 3.4 22 11.8 SSE 24 50 13 27 1010.9 1010.1 0.0
16/01:57am 27.0 21.2 2.1 20 12.2 SE 22 39 12 21 1010.9 1010.1 0.0
16/01:30am 27.3 20.0 2.4 20 12.3 ESE 30 41 16 22 1008.8 1007.9 0.0
16/01:00am 27.9 20.2 2.2 19 12.7 ESE 32 39 17 21 1008.4 1007.5 0.0
16/12:30am 28.9 21.1 3.0 19 13.1 SE 33 43 18 23 1008.6 1007.7 0.0
16/12:00am 29.4 21.6 2.6 18 13.5 SE 33 41 18 22 1008.8 1007.9 0.0
 
Date/Time
CDT
Temp
°C
App
Temp
°C
Dew
Point
°C
Rel
Hum
%
Delta-T
°C
Wind Press
QNH
hPa
Press
MSL
hPa
Rain since
9am
mm
Dir  Spd
km/h
Gust
km/h
Spd
kts
Gust
kts
15/11:30pm 29.6 21.7 2.0 17 13.8 SSE 33 46 18 25 1008.8 1007.9 0.0
15/11:00pm 29.9 20.5 2.2 17 13.9 S 41 50 22 27 1008.8 1007.9 0.0
15/10:30pm 30.1 19.8 2.4 17 14.0 S 46 61 25 33 1008.5 1007.6 0.0
15/10:10pm 30.3 19.8 1.7 16 14.2 S 46 59 25 32 1008.1 1007.2 0.0
15/10:02pm 30.4 18.8 1.8 16 14.3 S 52 70 28 38 1007.8 1007.0 0.0
15/10:00pm 30.5 18.6 1.9 16 14.3 S 54 70 29 38 1007.7 1006.9 0.0
15/09:43pm 30.8 19.3 2.1 16 14.4 SSW 52 67 28 36 1007.4 1006.6 0.0
15/09:40pm 30.8 20.4 2.1 16 14.4 SSW 46 65 25 35 1007.3 1006.5 0.0
15/09:35pm 31.1 22.3 1.4 15 14.8 SSW 37 61 20 33 1007.7 1006.9 0.0
15/09:30pm 31.4 22.5 0.7 14 15.2 S 37 50 20 27 1007.6 1006.8 0.0
15/09:24pm 31.7 23.8 1.0 14 15.2 SSW 32 50 17 27 1007.2 1006.4 0.0
15/09:22pm 31.5 24.3 0.8 14 15.2 SSW 28 44 15 24 1007.3 1006.5 0.0
15/09:00pm 31.5 26.0 0.8 14 15.2 S 19 26 10 14 1006.4 1005.5 0.0
15/08:30pm 33.1 27.1 1.0 13 16.1 SSE 22 26 12 14 1005.5 1004.6 0.0
15/08:00pm 33.2 27.6 1.1 13 16.1 SSE 20 24 11 13 1005.0 1004.1 0.0
15/07:30pm 34.1 27.8 1.8 13 16.6 SE 24 32 13 17 1004.5 1003.6 0.0
15/07:00pm 35.1 29.5 1.5 12 17.2 S 20 28 11 15 1004.6 1003.7 0.0
15/06:30pm 36.0 28.3 2.1 12 17.6 SW 32 50 17 27 1004.5 1003.6 0.0
15/06:26pm 36.2 29.4 1.1 11 17.9 SW 26 50 14 27 1004.4 1003.5 0.0
15/06:24pm 36.1 29.9 2.2 12 17.6 SW 24 43 13 23 1004.6 1003.7 0.0
15/06:14pm 35.7 28.5 0.7 11 17.7 SW 28 56 15 30 1004.7 1003.8 0.0
15/06:12pm 35.7 29.6 0.7 11 17.7 SW 22 52 12 28 1004.6 1003.7 0.0
15/06:00pm 36.3 34.3 -0.2 10 18.4 CALM 0 0 0 0 1004.5 1003.6 0.0
15/05:30pm 36.7 31.9 0.1 10 18.5 NNE 15 30 8 16 1004.1 1003.2 0.0
15/05:00pm 38.0 31.6 1.1 10 19.1 N 24 30 13 16 1004.6 1003.7 0.0
15/04:30pm 37.4 30.6 0.7 10 18.8 N 26 33 14 18 1005.5 1004.6 0.0
15/04:00pm 36.9 28.7 0.3 10 18.6 N 33 46 18 25 1006.0 1005.1 0.0
15/03:43pm 36.2 28.7 1.1 11 17.9 N 30 48 16 26 1006.2 1005.3 0.0
15/03:30pm 36.9 29.1 1.6 11 18.3 NNE 32 44 17 24 1006.6 1005.8 0.0
15/03:00pm 35.3 27.1 2.7 13 17.0 NNE 35 48 19 26 1007.4 1006.6 0.0
15/02:55pm 35.1 27.3 2.6 13 16.9 NNE 33 44 18 24 1007.5 1006.7 0.0
15/02:35pm 36.1 28.8 2.2 12 17.6 N 30 48 16 26 1008.6 1007.7 0.0
15/02:30pm 35.0 27.3 2.5 13 16.9 NNE 32 46 17 25 1008.6 1007.7 0.0
15/02:03pm 35.0 27.3 2.5 13 16.9 NNE 32 50 17 27 1009.3 1008.4 0.0
15/02:00pm 35.3 26.9 1.6 12 17.3 NNE 35 50 19 27 1009.4 1008.5 0.0
15/01:44pm 34.8 27.1 2.3 13 16.8 NNE 32 50 17 27 1009.4 1008.5 0.0
15/01:30pm 35.5 27.9 2.9 13 17.1 NNE 32 44 17 24 1009.9 1009.0 0.0
15/01:00pm 33.5 24.9 2.4 14 16.0 NNE 37 50 20 27 1010.4 1009.5 0.0
15/12:30pm 32.4 24.4 1.5 14 15.6 NE 33 46 18 25 1011.2 1010.4 0.0
15/12:00pm 31.8 23.5 2.0 15 15.1 NE 35 48 19 26 1011.2 1010.4 0.0
15/11:30am 30.5 23.0 1.0 15 14.5 ENE 30 41 16 22 1012.0 1011.2 0.0
15/11:00am 29.3 21.8 0.9 16 13.9 ENE 30 37 16 20 1012.5 1011.7 0.0
15/10:30am 27.7 19.7 0.5 17 13.0 ENE 32 41 17 22 1012.3 1011.5 0.0
15/10:00am 26.4 18.4 0.2 18 12.4 E 32 39 17 21 1012.4 1011.6 0.0
15/09:30am 25.1 17.4 -0.1 19 11.7 E 30 37 16 20 1012.4 1011.6 0.0
15/09:00am 23.9 16.5 -0.4 20 11.1 E 28 35 15 19 1012.2 1011.4 0.0
15/08:30am 23.2 15.2 0.3 22 10.6 E 32 39 17 21 1011.9 1011.1 0.0
15/08:00am 21.9 14.6 -0.1 23 10.0 E 28 35 15 19 1011.8 1011.0 0.0
15/07:30am 20.3 14.5 0.2 26 9.1 E 20 26 11 14 1011.6 1010.8 0.0
15/07:00am 19.7 14.1 0.2 27 8.7 ESE 19 26 10 14 1011.7 1010.9 0.0
15/06:30am 20.2 14.1 0.1 26 9.0 E 22 26 12 14 1011.7 1010.9 0.0
15/06:00am 20.7 13.4 0.0 25 9.3 E 28 33 15 18 1010.9 1010.1 0.0
15/05:30am 21.1 15.0 0.3 25 9.4 ESE 22 26 12 14 1011.2 1010.4 0.0
15/05:00am 21.6 15.6 0.8 25 9.6 E 22 28 12 15 1011.1 1010.3 0.0
15/04:30am 21.4 16.0 1.1 26 9.4 ESE 19 22 10 12 1011.0 1010.2 0.0
15/04:00am 21.8 16.2 1.5 26 9.5 ESE 20 24 11 13 1011.2 1010.4 0.0
15/03:30am 22.3 16.8 1.9 26 9.6 E 20 26 11 14 1011.4 1010.6 0.0
15/03:00am 22.7 16.5 2.2 26 9.8 ESE 24 28 13 15 1011.5 1010.7 0.0
15/02:30am 23.1 16.5 2.0 25 10.1 ESE 26 32 14 17 1011.9 1011.1 0.0
15/02:00am 23.5 17.8 2.9 26 10.0 ESE 22 28 12 15 1012.8 1011.9 0.0
15/01:30am 23.9 18.6 3.2 26 10.1 ESE 20 26 11 14 1013.3 1012.4 0.0
15/01:00am 24.3 19.2 3.0 25 10.4 ESE 19 24 10 13 1013.5 1012.6 0.0
15/12:30am 24.4 19.7 3.1 25 10.4 ESE 17 20 9 11 1013.7 1012.8 0.0
15/12:00am 25.2 21.3 3.2 24 10.9 ESE 13 20 7 11 1014.0 1013.1 0.0
 
Date/Time
CDT
Temp
°C
App
Temp
°C
Dew
Point
°C
Rel
Hum
%
Delta-T
°C
Wind Press
QNH
hPa
Press
MSL
hPa
Rain since
9am
mm
Dir  Spd
km/h
Gust
km/h
Spd
kts
Gust
kts
14/11:30pm 25.9 19.9 3.2 23 11.3 ESE 24 33 13 18 1013.4 1012.5 0.0
14/11:00pm 26.3 21.9 2.9 22 11.6 E 15 26 8 14 1014.5 1013.7 0.0
14/10:30pm 26.2 23.0 2.8 22 11.5 ENE 9 13 5 7 1015.2 1014.4 0.0
14/10:00pm 26.7 22.7 2.6 21 11.9 E 13 15 7 8 1015.1 1014.3 0.0
14/09:30pm 27.1 23.5 2.9 21 12.0 SSW 11 13 6 7 1015.6 1014.8 0.0
14/09:00pm 27.3 23.6 2.4 20 12.3 SE 11 11 6 6 1014.5 1013.7 0.0
14/08:30pm 28.1 24.1 3.0 20 12.6 SSE 13 17 7 9 1014.2 1013.3 0.0
14/08:00pm 28.6 24.6 2.7 19 13.0 SE 13 17 7 9 1013.6 1012.7 0.0
14/07:30pm 29.2 24.9 3.2 19 13.2 SE 15 20 8 11 1013.2 1012.3 0.0
14/07:00pm 29.7 25.8 3.6 19 13.4 SE 13 20 7 11 1012.9 1012.0 0.0
14/06:30pm 29.8 26.0 3.7 19 13.4 ESE 13 20 7 11 1012.9 1012.0 0.0

Other formats

Comma delimited format used in spreadsheet applications
http://www.bom.gov.au/fwo/IDS60801/IDS60801.95458.axf

JavaScript Object Notation format (JSON) in row-major order
http://www.bom.gov.au/fwo/IDS60801/IDS60801.95458.json

Data quality

Most of these data are generated automatically and are frequently updated. Quality checks on data are not normally performed. It is possible for incorrect values to appear. Refer to information at About Latest Weather Observations and please check the disclaimer before using these data.